Time;durP1;ratioP1;P1;durP2;ratioP2;P2;SDS_P1;SDS_P2;PMS_P1;PMS_P2;Temp;Humidity;BMP_temperature;BMP_pressure;BME280_temperature;BME280_humidity;BME280_pressure;Samples;Min_cycle;Max_cycle;Signal;HPM_P1;HPM_P2
2022/03/28 00:03:23;;;;;;;5.25;4.10;;;;;;;16.74;47.23;97516.31;10386203;28;20429;-21
2022/03/28 00:08:24;;;;;;;5.73;3.93;;;;;;;16.73;47.47;97511.22;10385280;28;20034;-22
2022/03/28 00:13:24;;;;;;;7.93;5.07;;;;;;;16.77;48.77;97509.66;10376984;28;20026;-22
2022/03/28 00:18:25;;;;;;;6.97;5.20;;;;;;;16.91;52.75;97507.38;10385154;28;20029;-22
2022/03/28 00:23:25;;;;;;;7.95;5.90;;;;;;;16.94;52.98;97505.75;10378417;28;20303;-22
2022/03/28 00:28:26;;;;;;;6.13;4.67;;;;;;;16.90;50.68;97496.41;10380754;28;20033;-22
2022/03/28 00:33:26;;;;;;;7.10;4.18;;;;;;;16.82;48.08;97497.94;10364373;28;20285;-21
2022/03/28 00:38:27;;;;;;;4.47;4.07;;;;;;;16.80;47.75;97488.59;10372736;28;20039;-21
2022/03/28 00:43:27;;;;;;;4.32;3.95;;;;;;;16.79;47.33;97489.44;10380821;28;20046;-21
2022/03/28 00:48:28;;;;;;;5.40;4.13;;;;;;;16.77;47.11;97481.84;10375162;28;20038;-21
2022/03/28 00:53:28;;;;;;;4.80;4.30;;;;;;;16.77;47.12;97488.56;10384515;28;20043;-22
2022/03/28 00:58:29;;;;;;;4.87;4.03;;;;;;;16.76;47.57;97479.28;10374752;28;20060;-21
2022/03/28 01:03:29;;;;;;;5.03;4.22;;;;;;;16.78;47.23;97482.66;10383898;28;20379;-21
2022/03/28 01:08:32;;;;;;;4.28;3.88;;;;;;;16.77;47.69;97473.38;10382961;28;20164;-22
2022/03/28 01:13:34;;;;;;;4.50;3.90;;;;;;;16.76;47.08;97476.75;10372944;28;20040;-21
2022/03/28 01:18:35;;;;;;;4.28;3.88;;;;;;;16.77;47.11;97468.31;10380286;28;20045;-22
2022/03/28 01:23:36;;;;;;;5.57;4.22;;;;;;;16.73;49.96;97448.88;10376956;28;20029;-21
2022/03/28 01:28:36;;;;;;;5.57;4.82;;;;;;;16.91;52.96;97461.84;10375563;28;20048;-21
2022/03/28 01:33:36;;;;;;;5.93;4.57;;;;;;;16.91;52.38;97446.69;10376070;28;20040;-21
2022/03/28 01:38:37;;;;;;;6.38;4.65;;;;;;;16.91;50.53;97450.03;10373815;28;20026;-22
2022/03/28 01:43:38;;;;;;;5.60;4.28;;;;;;;16.83;47.96;97443.16;10378164;28;20103;-22
2022/03/28 01:48:38;;;;;;;5.00;3.50;;;;;;;16.80;47.43;97432.97;10375653;28;20061;-21
2022/03/28 01:53:38;;;;;;;5.20;4.00;;;;;;;16.79;47.68;97431.25;10381769;28;20300;-22
2022/03/28 01:58:39;;;;;;;3.63;3.33;;;;;;;16.78;47.39;97434.63;10373256;28;20025;-22
2022/03/28 02:03:39;;;;;;;3.57;3.10;;;;;;;16.79;47.49;97428.75;10384530;28;20747;-20
2022/03/28 02:08:40;;;;;;;5.40;3.57;;;;;;;16.77;47.54;97430.41;10386304;28;20030;-23
2022/03/28 02:13:40;;;;;;;3.60;3.25;;;;;;;16.78;47.69;97419.44;10376714;28;20474;-22
2022/03/28 02:18:41;;;;;;;5.88;3.88;;;;;;;16.73;47.79;97410.97;10385127;28;20034;-21
2022/03/28 02:23:41;;;;;;;3.90;3.47;;;;;;;16.78;47.57;97416.94;10376838;28;20084;-21
2022/03/28 02:28:42;;;;;;;4.27;3.87;;;;;;;16.70;47.02;97400.75;10383350;28;20033;-21
2022/03/28 02:33:44;;;;;;;4.55;4.13;;;;;;;16.80;50.93;97402.63;10383898;28;20045;-21
2022/03/28 02:38:44;;;;;;;5.85;4.68;;;;;;;16.92;52.85;97405.38;10374865;28;20661;-21
2022/03/28 02:43:45;;;;;;;5.33;4.73;;;;;;;16.87;51.18;97389.25;10379505;28;20037;-21
2022/03/28 02:48:45;;;;;;;5.03;4.18;;;;;;;16.81;50.34;97376.53;10377697;28;20297;-21
2022/03/28 02:53:45;;;;;;;7.43;4.53;;;;;;;16.82;47.66;97390.88;10380447;28;20040;-21
2022/03/28 02:58:46;;;;;;;4.10;3.70;;;;;;;16.80;47.59;97388.31;10376722;28;20030;-22
2022/03/28 03:03:46;;;;;;;3.83;3.38;;;;;;;16.75;47.54;97384.84;10382387;28;20041;-22
2022/03/28 03:08:47;;;;;;;3.77;3.37;;;;;;;16.79;47.82;97390.81;10384680;28;20044;-23
2022/03/28 03:13:48;;;;;;;3.63;3.20;;;;;;;16.78;47.47;97389.97;10375887;28;20042;-22
2022/03/28 03:18:49;;;;;;;3.33;3.03;;;;;;;16.79;47.79;97393.34;10380853;28;20681;-21
2022/03/28 03:23:49;;;;;;;3.95;3.47;;;;;;;16.77;47.41;97387.41;10382189;28;20500;-22
2022/03/28 03:28:50;;;;;;;4.03;3.63;;;;;;;16.78;47.12;97381.53;10363901;28;20037;-21
2022/03/28 03:33:50;;;;;;;4.03;3.22;;;;;;;16.77;47.82;97388.28;10385585;28;21303;-22
2022/03/28 03:38:50;;;;;;;4.78;3.78;;;;;;;16.77;47.76;97388.28;10383414;28;20030;-22
2022/03/28 03:43:51;;;;;;;4.57;3.80;;;;;;;16.83;52.44;97392.59;10384845;28;20030;-22
2022/03/28 03:48:51;;;;;;;5.20;4.13;;;;;;;16.92;51.48;97393.56;10385339;28;20306;-22
2022/03/28 03:53:52;;;;;;;4.68;3.72;;;;;;;16.94;51.94;97391.06;10387676;28;20633;-22
2022/03/28 03:58:52;;;;;;;4.67;3.90;;;;;;;16.89;48.40;97395.22;10392073;28;20029;-21
2022/03/28 04:03:53;;;;;;;4.23;3.43;;;;;;;16.86;47.69;97396.03;10384132;28;20289;-21
2022/03/28 04:08:54;;;;;;;4.15;3.45;;;;;;;16.87;47.59;97394.31;10389121;28;20095;-21
2022/03/28 04:13:54;;;;;;;3.20;2.90;;;;;;;16.84;47.53;97385.00;10382938;28;20030;-21
2022/03/28 04:18:54;;;;;;;3.47;3.17;;;;;;;16.85;47.45;97375.75;10380489;28;20036;-21
2022/03/28 04:23:55;;;;;;;4.33;3.43;;;;;;;16.84;47.22;97384.16;10383735;28;20064;-21
2022/03/28 04:28:55;;;;;;;3.63;3.03;;;;;;;16.81;47.75;97384.97;10383134;28;20428;-21
2022/03/28 04:33:56;;;;;;;3.40;3.10;;;;;;;16.82;47.81;97385.81;10388900;28;20436;-21
2022/03/28 04:38:56;;;;;;;3.83;3.43;;;;;;;16.86;47.11;97387.56;10378001;28;20091;-22
2022/03/28 04:43:57;;;;;;;3.60;3.30;;;;;;;16.86;46.95;97393.50;10383924;28;20041;-22
2022/03/28 04:48:58;;;;;;;3.53;3.22;;;;;;;16.86;47.01;97387.56;10385579;28;20045;-22
2022/03/28 04:53:58;;;;;;;7.93;5.18;;;;;;;16.93;50.68;97402.03;10383601;28;20477;-22
2022/03/28 04:58:59;;;;;;;8.67;5.97;;;;;;;16.98;49.95;97390.31;10382033;28;20103;-21
2022/03/28 05:03:59;;;;;;;4.63;3.97;;;;;;;16.99;48.15;97384.44;10385556;28;20026;-21
2022/03/28 05:08:59;;;;;;;8.57;3.80;;;;;;;16.92;46.83;97398.63;10385935;28;20030;-21
2022/03/28 05:14:00;;;;;;;6.10;3.90;;;;;;;16.90;47.47;97394.41;10381168;28;20763;-22
2022/03/28 05:19:01;;;;;;;3.78;3.40;;;;;;;16.89;46.83;97390.16;10383977;28;20044;-22
2022/03/28 05:24:01;;;;;;;4.32;3.78;;;;;;;16.86;47.27;97393.50;10379963;28;20034;-22
2022/03/28 05:29:02;;;;;;;6.95;5.28;;;;;;;16.85;47.11;97385.88;10382960;28;20034;-22
2022/03/28 05:34:02;;;;;;;5.57;4.03;;;;;;;16.85;47.03;97391.78;10382924;28;20030;-21
2022/03/28 05:39:03;;;;;;;19.03;7.93;;;;;;;16.67;45.40;97385.56;10373744;28;20549;-21
2022/03/28 05:44:04;;;;;;;4.80;4.13;;;;;;;16.71;46.66;97384.75;10379865;28;20117;-21
2022/03/28 05:49:05;;;;;;;5.95;4.28;;;;;;;16.79;46.69;97383.22;10380588;28;20025;-22
2022/03/28 05:54:06;;;;;;;5.60;3.80;;;;;;;16.80;46.74;97382.38;10375850;28;20502;-21
2022/03/28 05:59:07;;;;;;;4.35;3.88;;;;;;;16.73;46.88;97370.50;10379116;28;20049;-21
2022/03/28 06:04:08;;;;;;;12.00;5.72;;;;;;;16.90;50.35;97369.09;10377503;28;20129;-22
2022/03/28 06:09:08;;;;;;;13.25;6.18;;;;;;;16.93;50.32;97370.00;10383320;28;20034;-22
2022/03/28 06:14:09;;;;;;;6.37;4.57;;;;;;;16.98;50.30;97377.66;10376203;28;20073;-22
2022/03/28 06:19:09;;;;;;;6.07;3.55;;;;;;;16.89;47.75;97369.94;10381000;28;20434;-21
2022/03/28 06:24:10;;;;;;;3.73;3.37;;;;;;;16.87;47.21;97369.03;10385323;28;20556;-22
2022/03/28 06:29:10;;;;;;;4.95;3.58;;;;;;;16.83;47.31;97377.41;10380551;28;20037;-21
2022/03/28 06:34:11;;;;;;;4.32;3.40;;;;;;;16.83;47.70;97372.34;10382226;28;20064;-21
2022/03/28 06:39:12;;;;;;;3.27;2.97;;;;;;;16.82;47.32;97358.00;10383425;28;20393;-21
2022/03/28 06:44:12;;;;;;;8.57;3.60;;;;;;;16.82;47.47;97365.59;10380736;28;20097;-22
2022/03/28 06:49:13;;;;;;;4.30;3.43;;;;;;;16.80;47.62;97362.16;10380450;28;20038;-22
2022/03/28 06:54:14;;;;;;;5.65;4.15;;;;;;;16.81;47.30;97363.91;10379860;28;20688;-22
2022/03/28 06:59:15;;;;;;;3.92;3.50;;;;;;;16.79;47.65;97366.38;10375720;28;20071;-22
2022/03/28 07:04:15;;;;;;;5.20;3.13;;;;;;;16.80;47.38;97357.97;10384913;28;20456;-21
2022/03/28 07:09:16;;;;;;;4.00;3.30;;;;;;;16.75;47.58;97346.91;10389716;28;20502;-21
2022/03/28 07:14:16;;;;;;;5.30;4.80;;;;;;;16.91;51.14;97351.41;10382625;28;20036;-22
2022/03/28 07:19:17;;;;;;;6.25;4.63;;;;;;;16.98;50.99;97352.38;10391529;28;20030;-22
2022/03/28 07:24:17;;;;;;;5.90;4.13;;;;;;;16.95;50.31;97347.25;10389659;28;20493;-22
2022/03/28 07:29:18;;;;;;;4.53;3.47;;;;;;;16.88;48.47;97345.44;10385422;28;20037;-22
2022/03/28 07:34:32;;;;;;;4.80;3.50;;;;;;;16.84;47.86;97342.00;10386686;28;20456;-22
2022/03/28 07:39:34;;;;;;;3.47;3.03;;;;;;;16.81;47.87;97339.44;10382750;28;20243;-22
2022/03/28 07:44:35;;;;;;;3.58;2.97;;;;;;;16.79;47.41;97330.13;10385747;28;20605;-21
2022/03/28 07:49:36;;;;;;;3.33;3.03;;;;;;;16.80;47.94;97331.81;10386916;28;20114;-21
2022/03/28 07:54:36;;;;;;;5.88;3.40;;;;;;;16.79;47.91;97318.34;10390185;28;20041;-22
2022/03/28 07:59:38;;;;;;;3.25;2.95;;;;;;;16.79;48.16;97320.00;10385687;28;20048;-22
2022/03/28 08:04:42;;;;;;;4.43;3.38;;;;;;;16.79;47.64;97314.94;10395006;28;20045;-21
2022/03/28 08:09:43;;;;;;;4.15;2.90;;;;;;;16.78;47.71;97308.19;10383539;28;20068;-21
2022/03/28 08:14:44;;;;;;;3.80;3.22;;;;;;;16.79;48.01;97309.91;10391949;28;20446;-22
2022/03/28 08:19:45;;;;;;;3.43;3.13;;;;;;;16.73;47.88;97289.59;10380451;28;20537;-22
2022/03/28 08:24:45;;;;;;;4.35;3.72;;;;;;;16.93;51.40;97303.38;10381156;28;20303;-22
2022/03/28 08:29:45;;;;;;;4.10;3.70;;;;;;;16.99;51.51;97288.31;10385327;28;20040;-22
2022/03/28 08:34:48;;;;;;;4.20;3.50;;;;;;;16.95;50.26;97284.88;10382069;28;20394;-22
2022/03/28 08:39:54;;;;;;;4.03;3.20;;;;;;;16.86;48.59;97287.28;10383833;28;20038;-22
2022/03/28 08:44:55;;;;;;;3.50;2.90;;;;;;;16.80;47.72;97282.13;10382912;28;20049;-21
2022/03/28 08:49:55;;;;;;;3.40;3.00;;;;;;;16.75;48.17;97267.69;10386588;28;20324;-22
2022/03/28 08:54:55;;;;;;;3.95;3.40;;;;;;;16.84;48.08;97280.47;10381644;28;20040;-22
2022/03/28 08:59:58;;;;;;;3.60;2.67;;;;;;;16.79;47.47;97259.31;10384119;28;20108;-22
2022/03/28 09:05:00;;;;;;;3.25;2.75;;;;;;;16.86;47.67;97263.66;10387013;28;20030;-22
2022/03/28 09:10:05;;;;;;;2.45;2.25;;;;;;;16.90;47.58;97257.81;10386154;28;20083;-22
2022/03/28 09:15:09;;;;;;;3.55;2.72;;;;;;;16.90;47.19;97257.81;10381293;28;20037;-21
2022/03/28 09:20:10;;;;;;;2.63;2.42;;;;;;;16.90;47.33;97257.81;10384033;28;20033;-22
2022/03/28 09:25:14;;;;;;;2.88;2.60;;;;;;;16.89;47.39;97258.66;10384579;28;20040;-22
2022/03/28 09:30:19;;;;;;;3.63;3.25;;;;;;;16.94;49.20;97259.56;10378502;28;20041;-22
2022/03/28 09:35:22;;;;;;;5.78;3.75;;;;;;;17.01;51.25;97246.16;10379764;28;20529;-21
2022/03/28 09:40:42;;;;;;;4.47;3.20;;;;;;;17.03;51.45;97237.78;10380943;28;20160;-22
2022/03/28 09:45:50;;;;;;;2.75;2.45;;;;;;;16.97;48.32;97236.81;10375764;28;20037;-22
2022/03/28 09:51:03;;;;;;;3.65;3.00;;;;;;;16.94;47.46;97236.78;10387514;28;20041;-22
2022/03/28 09:56:06;;;;;;;3.30;2.88;;;;;;;16.92;47.55;97238.47;10379128;28;20467;-21
2022/03/28 10:01:12;;;;;;;4.55;2.97;;;;;;;16.91;47.99;97231.69;10379174;28;20021;-22
2022/03/28 10:06:13;;;;;;;2.78;2.45;;;;;;;16.90;47.39;97220.72;10386663;28;20080;-22
2022/03/28 10:11:14;;;;;;;3.20;2.90;;;;;;;16.89;47.81;97230.84;10378544;28;20107;-21
2022/03/28 10:16:15;;;;;;;2.70;2.50;;;;;;;16.90;47.83;97227.47;10385333;28;20405;-22
2022/03/28 10:21:22;;;;;;;3.35;2.90;;;;;;;16.93;47.62;97219.91;10380259;28;20026;-21
2022/03/28 10:26:32;;;;;;;3.60;3.03;;;;;;;16.93;47.65;97212.34;10375182;28;20044;-22
2022/03/28 10:31:34;;;;;;;2.92;2.60;;;;;;;16.93;47.50;97198.03;10381426;28;20124;-21
2022/03/28 10:36:37;;;;;;;3.05;2.75;;;;;;;16.94;47.75;97199.72;10382079;28;20107;-22
2022/03/28 10:41:41;;;;;;;10.07;3.60;;;;;;;16.99;49.48;97190.50;10378102;28;20409;-21
2022/03/28 10:46:42;;;;;;;16.05;6.25;;;;;;;17.10;48.69;97178.84;10377086;28;20029;-21
2022/03/28 10:51:48;;;;;;;17.13;4.40;;;;;;;17.08;48.67;97167.00;10384516;28;20034;-22
2022/03/28 10:56:49;;;;;;;6.40;3.03;;;;;;;17.02;47.71;97159.34;10375094;28;20493;-22
2022/03/28 11:01:52;;;;;;;3.95;3.33;;;;;;;16.99;47.57;97161.84;10378233;28;20069;-22
2022/03/28 11:07:03;;;;;;;2.90;2.50;;;;;;;16.99;47.88;97152.56;10384015;28;20124;-22
2022/03/28 11:12:20;;;;;;;2.90;2.47;;;;;;;16.99;48.01;97144.13;10385935;28;20034;-21
2022/03/28 11:17:41;;;;;;;3.63;3.20;;;;;;;16.98;48.08;97129.78;10381674;28;20037;-22
2022/03/28 11:23:08;;;;;;;9.55;5.43;;;;;;;16.97;48.15;97120.47;10362683;28;20042;-22
2022/03/28 11:28:08;;;;;;;4.57;3.90;;;;;;;16.98;48.40;97117.97;10380083;28;20033;-21
2022/03/28 11:33:10;;;;;;;8.23;5.00;;;;;;;16.99;48.95;97111.25;10383436;28;20339;-21
2022/03/28 11:38:11;;;;;;;9.30;4.00;;;;;;;16.98;48.22;97104.50;10375431;28;20402;-22
2022/03/28 11:43:12;;;;;;;7.00;3.25;;;;;;;16.95;48.78;97095.19;10379210;28;20034;-22
2022/03/28 11:48:15;;;;;;;16.23;7.17;;;;;;;17.00;51.90;97098.59;10381102;28;20034;-22
2022/03/28 11:53:17;;;;;;;15.98;7.95;;;;;;;17.13;53.03;97086.94;10382565;28;20080;-22
2022/03/28 11:58:29;;;;;;;15.93;7.85;;;;;;;17.17;52.84;97078.56;10381761;28;20041;-22
2022/03/28 12:03:29;;;;;;;8.15;6.00;;;;;;;17.10;50.77;97059.09;10394775;28;20034;-21
2022/03/28 12:08:30;;;;;;;8.63;4.63;;;;;;;17.02;48.51;97065.75;10386273;28;20037;-22
2022/03/28 12:13:30;;;;;;;7.95;4.82;;;;;;;17.02;48.71;97045.50;10391914;28;20397;-22
2022/03/28 12:18:30;;;;;;;4.57;3.57;;;;;;;16.97;48.61;97034.47;10385362;28;20040;-23
2022/03/28 12:23:31;;;;;;;6.63;3.40;;;;;;;16.98;48.54;97038.75;10385621;28;20034;-22
2022/03/28 12:28:36;;;;;;;9.30;6.47;;;;;;;16.95;48.71;97026.91;10380988;28;20034;-22
2022/03/28 12:33:39;;;;;;;22.35;7.72;;;;;;;16.96;48.96;97020.16;10384994;28;20107;-21
2022/03/28 12:38:44;;;;;;;9.48;3.90;;;;;;;16.95;48.15;97015.94;10362145;28;20322;-22
2022/03/28 12:43:50;;;;;;;6.93;3.65;;;;;;;16.94;48.39;97004.13;10383508;28;20037;-21
2022/03/28 12:48:53;;;;;;;8.83;4.63;;;;;;;16.90;48.47;96993.13;10382063;28;20076;-21
2022/03/28 12:54:03;;;;;;;5.93;3.25;;;;;;;16.93;48.15;96982.19;10383803;28;21364;-22
2022/03/28 12:59:04;;;;;;;15.90;6.22;;;;;;;17.06;50.01;96976.44;10381500;28;20052;-21
2022/03/28 13:04:09;;;;;;;12.70;5.90;;;;;;;17.19;49.97;96975.69;10388865;28;20037;-22
2022/03/28 13:09:10;;;;;;;8.32;4.70;;;;;;;17.21;48.78;96971.50;10384685;28;20451;-22
2022/03/28 13:14:31;;;;;;;8.35;4.25;;;;;;;17.10;48.19;96970.56;10380233;28;20120;-22
2022/03/28 13:19:32;;;;;;;4.05;3.20;;;;;;;17.02;47.99;96964.56;10377810;28;20025;-21
2022/03/28 13:24:33;;;;;;;5.83;4.00;;;;;;;16.96;48.11;96952.72;10380527;28;20037;-22
2022/03/28 13:29:34;;;;;;;5.80;3.47;;;;;;;16.97;48.33;96951.03;10385690;28;20034;-22
2022/03/28 13:34:34;;;;;;;5.80;3.20;;;;;;;16.94;48.13;96934.16;10383494;28;20490;-21
2022/03/28 13:39:36;;;;;;;6.80;3.70;;;;;;;16.96;48.51;96934.16;10374396;28;20075;-21
2022/03/28 13:44:37;;;;;;;4.85;3.28;;;;;;;16.95;48.02;96932.47;10381164;28;20580;-21
2022/03/28 13:49:37;;;;;;;8.25;3.63;;;;;;;16.94;48.47;96915.59;10382050;28;20041;-21
2022/03/28 13:54:38;;;;;;;6.53;2.70;;;;;;;16.93;48.23;96916.44;10382924;28;20041;-21
2022/03/28 13:59:38;;;;;;;4.53;3.23;;;;;;;16.93;48.24;96899.59;10374879;28;20029;-21
2022/03/28 14:04:39;;;;;;;6.57;3.83;;;;;;;16.93;48.23;96888.63;10385334;28;20112;-21
2022/03/28 14:09:39;;;;;;;7.10;5.10;;;;;;;17.10;51.78;96876.97;10381636;28;20351;-21
2022/03/28 14:14:40;;;;;;;5.03;3.80;;;;;;;17.23;51.35;96877.06;10377038;28;20026;-22
2022/03/28 14:19:42;;;;;;;4.57;3.28;;;;;;;17.20;49.44;96868.59;10383447;28;20026;-22
2022/03/28 14:24:43;;;;;;;4.30;3.10;;;;;;;17.07;48.48;96866.81;10378107;28;20402;-22
2022/03/28 14:29:44;;;;;;;3.27;2.70;;;;;;;17.00;48.43;96865.06;10378507;28;20034;-22
2022/03/28 14:34:46;;;;;;;5.07;2.90;;;;;;;16.92;48.35;96856.59;10385152;28;20034;-21
2022/03/28 14:39:47;;;;;;;3.13;2.30;;;;;;;16.96;48.48;96849.03;10373675;28;20485;-21
2022/03/28 14:44:48;;;;;;;5.22;3.42;;;;;;;16.95;48.31;96843.94;10378402;28;20046;-22
2022/03/28 14:49:48;;;;;;;3.60;2.70;;;;;;;16.94;48.59;96827.09;10380840;28;20050;-22
2022/03/28 14:54:49;;;;;;;3.15;2.50;;;;;;;16.94;48.41;96820.38;10380182;28;20715;-21
2022/03/28 14:59:49;;;;;;;3.90;2.58;;;;;;;16.93;48.40;96820.34;10378054;28;20037;-22
2022/03/28 15:04:50;;;;;;;3.47;3.10;;;;;;;16.93;48.68;96820.34;10385725;28;20045;-22
2022/03/28 15:09:52;;;;;;;4.20;2.65;;;;;;;16.93;48.44;96812.75;10379868;28;20513;-22
2022/03/28 15:14:53;;;;;;;4.05;3.15;;;;;;;17.04;50.55;96806.09;10379351;28;20143;-22
2022/03/28 15:19:53;;;;;;;5.40;3.58;;;;;;;17.21;51.54;96809.56;10380977;28;20064;-21
2022/03/28 15:24:53;;;;;;;3.37;2.80;;;;;;;17.26;50.13;96802.88;10379762;28;20038;-21
2022/03/28 15:29:54;;;;;;;6.13;4.17;;;;;;;17.18;49.50;96795.25;10388388;28;20108;-22
2022/03/28 15:34:54;;;;;;;3.30;2.80;;;;;;;17.06;48.36;96799.38;10382158;28;20037;-20
2022/03/28 15:39:55;;;;;;;3.25;2.80;;;;;;;17.02;48.65;96792.59;10384548;28;20037;-21
2022/03/28 15:44:55;;;;;;;8.57;2.85;;;;;;;16.98;48.42;96786.66;10385533;28;20040;-22
2022/03/28 15:49:56;;;;;;;10.37;3.07;;;;;;;16.96;48.46;96782.41;10392494;28;20494;-23
2022/03/28 15:54:56;;;;;;;11.43;3.38;;;;;;;16.92;48.85;96771.44;10381912;28;20297;-22
2022/03/28 15:59:57;;;;;;;10.23;2.60;;;;;;;16.96;48.43;96773.16;10381797;28;20025;-22
2022/03/28 16:04:58;;;;;;;3.08;2.20;;;;;;;16.94;48.44;96762.19;10388393;28;20044;-22
2022/03/28 16:09:58;;;;;;;6.57;3.73;;;;;;;16.95;48.42;96761.34;10384662;28;20042;-22
2022/03/28 16:14:58;;;;;;;6.80;3.33;;;;;;;16.94;48.60;96756.28;10386490;28;20029;-22
2022/03/28 16:19:59;;;;;;;8.17;2.67;;;;;;;16.94;48.55;96749.56;10386752;28;20300;-22
2022/03/28 16:24:59;;;;;;;9.60;3.73;;;;;;;17.11;51.84;96737.00;10380360;28;20088;-22
2022/03/28 16:29:59;;;;;;;7.45;4.20;;;;;;;17.24;53.22;96738.75;10380331;28;20445;-22
2022/03/28 16:35:00;;;;;;;9.67;4.20;;;;;;;17.25;50.89;96740.44;10387787;28;20037;-21
2022/03/28 16:40:00;;;;;;;6.80;3.60;;;;;;;17.15;49.98;96733.66;10378956;28;20834;-21
2022/03/28 16:45:01;;;;;;;6.43;3.13;;;;;;;17.08;48.79;96727.69;10383847;28;20041;-22
2022/03/28 16:50:02;;;;;;;6.57;2.93;;;;;;;17.03;49.17;96715.88;10361077;28;20041;-24
2022/03/28 16:55:03;;;;;;;10.35;3.47;;;;;;;17.02;48.59;96721.78;10374494;28;20034;-21
2022/03/28 17:00:05;;;;;;;10.90;2.92;;;;;;;16.98;48.75;96717.53;10369522;28;20187;-22
2022/03/28 17:05:07;;;;;;;10.52;3.72;;;;;;;17.00;48.44;96713.34;10375864;28;20021;-22
2022/03/28 17:10:08;;;;;;;8.27;3.53;;;;;;;16.97;48.39;96713.28;10383547;28;20044;-21
2022/03/28 17:15:13;;;;;;;6.38;3.97;;;;;;;16.97;48.79;96709.09;10383116;28;20544;-22
2022/03/28 17:20:13;;;;;;;4.25;2.42;;;;;;;16.96;48.73;96698.97;10386771;28;20060;-22
2022/03/28 17:25:15;;;;;;;2.90;2.33;;;;;;;16.98;48.26;96699.84;10380763;28;20052;-23
2022/03/28 17:30:19;;;;;;;9.80;3.10;;;;;;;16.92;48.36;96697.28;10380257;28;20524;-21
2022/03/28 17:35:22;;;;;;;7.20;4.38;;;;;;;17.18;54.55;96703.31;10377611;28;20050;-21
2022/03/28 17:40:24;;;;;;;11.88;4.13;;;;;;;17.27;54.71;96700.81;10369396;28;20088;-22
2022/03/28 17:45:29;;;;;;;11.32;3.00;;;;;;;17.20;51.41;96688.97;10378457;28;20486;-21
2022/03/28 17:50:29;;;;;;;3.70;2.20;;;;;;;17.08;49.60;96696.53;10373565;28;20037;-22
2022/03/28 17:55:32;;;;;;;9.53;3.17;;;;;;;16.95;49.30;96689.69;10374286;28;20033;-21
2022/03/28 18:00:34;;;;;;;3.97;2.40;;;;;;;16.96;48.79;96706.56;10375794;28;20312;-21
2022/03/28 18:05:34;;;;;;;5.82;2.65;;;;;;;16.95;49.22;96698.13;10381496;28;20029;-23
2022/03/28 18:10:35;;;;;;;3.90;2.70;;;;;;;16.94;48.48;96704.03;10383616;28;20429;-21
2022/03/28 18:15:35;;;;;;;7.05;2.92;;;;;;;16.95;48.65;96704.88;10380885;28;20029;-21
2022/03/28 18:20:36;;;;;;;4.93;2.40;;;;;;;16.94;48.86;96698.97;10377950;28;20026;-22
2022/03/28 18:25:36;;;;;;;4.30;2.40;;;;;;;16.95;48.63;96713.31;10382146;28;20041;-21
2022/03/28 18:30:37;;;;;;;3.50;2.05;;;;;;;16.95;48.57;96699.81;10373166;28;20030;-22
2022/03/28 18:35:39;;;;;;;5.10;2.30;;;;;;;16.92;48.71;96699.81;10380576;28;20063;-22
2022/03/28 18:40:40;;;;;;;5.32;3.13;;;;;;;17.06;51.65;96706.63;10381227;28;20088;-21
2022/03/28 18:45:41;;;;;;;8.95;3.55;;;;;;;17.20;54.94;96706.69;10375060;28;20040;-21
2022/03/28 18:50:43;;;;;;;10.35;3.35;;;;;;;17.26;53.41;96707.53;10373811;28;20044;-21
2022/03/28 18:55:45;;;;;;;8.45;3.00;;;;;;;17.15;49.70;96709.19;10377893;28;20029;-22
2022/03/28 19:00:46;;;;;;;7.00;2.95;;;;;;;17.05;49.05;96711.66;10371264;28;20029;-22
2022/03/28 19:05:46;;;;;;;2.63;2.10;;;;;;;17.02;48.96;96704.94;10385755;28;20028;-21
2022/03/28 19:10:47;;;;;;;10.93;3.63;;;;;;;16.95;52.12;96702.34;10385108;28;20096;-21
2022/03/28 19:15:48;;;;;;;26.67;2.67;;;;;;;17.00;48.77;96713.34;10387989;28;20511;-22
2022/03/28 19:20:48;;;;;;;6.13;2.53;;;;;;;17.04;49.44;96709.97;10388080;28;20034;-23
2022/03/28 19:25:48;;;;;;;3.90;2.40;;;;;;;17.02;49.63;96716.72;10390796;28;20414;-21
2022/03/28 19:30:51;;;;;;;9.10;2.55;;;;;;;17.02;49.00;96716.72;10388895;28;20292;-21
2022/03/28 19:35:54;;;;;;;7.22;2.88;;;;;;;17.02;48.65;96715.03;10380463;28;20037;-22
2022/03/28 19:40:55;;;;;;;2.85;2.38;;;;;;;17.03;48.68;96714.19;10382696;28;20028;-21
2022/03/28 19:45:55;;;;;;;3.53;1.92;;;;;;;17.01;48.55;96705.75;10389303;28;20028;-21
2022/03/28 19:50:56;;;;;;;7.03;3.23;;;;;;;17.20;53.88;96714.28;10390310;28;20030;-22
2022/03/28 19:55:57;;;;;;;8.03;3.80;;;;;;;17.28;54.57;96707.56;10388169;28;20029;-21
2022/03/28 20:00:57;;;;;;;3.17;2.78;;;;;;;17.25;51.59;96689.84;10389451;28;20287;-22
2022/03/28 20:05:58;;;;;;;2.83;2.45;;;;;;;17.12;49.07;96693.16;10387737;28;20036;-22
2022/03/28 20:10:59;;;;;;;3.67;2.70;;;;;;;17.08;48.73;96707.47;10389172;28;20037;-21
2022/03/28 20:16:00;;;;;;;2.05;1.83;;;;;;;17.09;48.44;96713.38;10384758;28;20099;-22
2022/03/28 20:21:00;;;;;;;4.03;2.50;;;;;;;17.11;48.50;96716.75;10386495;28;20099;-21
2022/03/28 20:26:02;;;;;;;2.73;2.43;;;;;;;17.12;48.75;96708.31;10381542;28;20288;-22
2022/03/28 20:31:04;;;;;;;6.93;3.17;;;;;;;17.11;48.30;96692.31;10384069;28;20022;-21
2022/03/28 20:36:04;;;;;;;2.45;2.17;;;;;;;17.11;48.43;96691.47;10385717;28;20433;-21
2022/03/28 20:41:05;;;;;;;2.10;1.90;;;;;;;17.10;48.30;96684.72;10381706;28;20112;-21
2022/03/28 20:46:06;;;;;;;2.40;1.90;;;;;;;17.08;48.49;96683.88;10384159;28;20038;-21
2022/03/28 20:51:07;;;;;;;2.40;2.20;;;;;;;17.08;48.49;96676.28;10389060;28;20062;-22
2022/03/28 20:56:07;;;;;;;2.33;2.13;;;;;;;17.09;48.85;96681.31;10380177;28;20552;-21
2022/03/28 21:01:08;;;;;;;4.60;2.83;;;;;;;17.26;53.69;96674.66;10381315;28;20413;-21
2022/03/28 21:06:10;;;;;;;6.40;3.53;;;;;;;17.31;53.70;96664.59;10388375;28;20363;-22
2022/03/28 21:11:10;;;;;;;7.97;2.70;;;;;;;17.22;49.67;96667.03;10364389;28;20069;-22
2022/03/28 21:16:11;;;;;;;2.40;2.05;;;;;;;17.12;49.07;96648.47;10387880;28;20068;-22
2022/03/28 21:21:11;;;;;;;3.13;2.37;;;;;;;17.09;48.44;96643.38;10384212;28;20057;-22
2022/03/28 21:26:12;;;;;;;3.20;2.90;;;;;;;16.97;48.68;96622.25;10379555;28;20111;-22
2022/03/28 21:31:13;;;;;;;2.67;1.85;;;;;;;17.05;48.68;96636.63;10385452;28;20034;-21
2022/03/28 21:36:14;;;;;;;2.63;2.22;;;;;;;17.03;48.64;96630.75;10381691;28;20029;-21
2022/03/28 21:41:14;;;;;;;2.60;2.22;;;;;;;17.01;48.44;96618.91;10379425;28;20037;-21
2022/03/28 21:46:16;;;;;;;4.60;2.47;;;;;;;17.03;48.50;96622.28;10379529;28;20515;-22
2022/03/28 21:51:17;;;;;;;2.40;2.20;;;;;;;17.02;48.52;96620.59;10386928;28;20037;-21
2022/03/28 21:56:18;;;;;;;2.20;2.00;;;;;;;17.02;48.86;96623.13;10379550;28;20040;-22
2022/03/28 22:01:18;;;;;;;2.83;2.15;;;;;;;16.99;48.24;96615.53;10385126;28;20021;-22
2022/03/28 22:06:19;;;;;;;4.47;2.97;;;;;;;17.17;53.09;96620.66;10386585;28;20030;-22
2022/03/28 22:11:19;;;;;;;3.13;2.50;;;;;;;17.28;54.26;96619.00;10383987;28;20394;-22
2022/03/28 22:16:20;;;;;;;3.95;2.55;;;;;;;17.29;52.34;96611.44;10385656;28;20061;-22
2022/03/28 22:21:21;;;;;;;3.42;2.47;;;;;;;17.15;49.41;96607.19;10380938;28;20038;-22
2022/03/28 22:26:21;;;;;;;2.30;2.10;;;;;;;17.06;48.74;96602.91;10379299;28;20030;-21
2022/03/28 22:31:22;;;;;;;3.20;2.05;;;;;;;17.05;48.55;96601.22;10375414;28;20053;-22
2022/03/28 22:36:22;;;;;;;3.40;2.28;;;;;;;17.04;48.60;96591.09;10380727;28;20026;-22
2022/03/28 22:41:22;;;;;;;3.05;2.65;;;;;;;17.02;48.79;96582.66;10378371;28;20664;-22
2022/03/28 22:46:23;;;;;;;3.37;2.20;;;;;;;17.04;48.56;96586.03;10377919;28;20037;-22
2022/03/28 22:51:23;;;;;;;2.07;1.80;;;;;;;17.02;49.14;96572.56;10381358;28;20319;-22
2022/03/28 22:56:24;;;;;;;5.17;2.10;;;;;;;17.02;48.49;96567.50;10377894;28;20022;-22
2022/03/28 23:01:24;;;;;;;2.87;2.13;;;;;;;17.03;48.77;96566.66;10377299;28;20284;-22
2022/03/28 23:06:24;;;;;;;3.47;2.13;;;;;;;17.02;48.37;96555.72;10381463;28;20080;-21
2022/03/28 23:11:25;;;;;;;1.93;1.80;;;;;;;17.04;48.73;96563.28;10382220;28;20038;-21
2022/03/28 23:16:26;;;;;;;3.90;2.65;;;;;;;17.23;54.01;96555.75;10377059;28;20292;-21
2022/03/28 23:21:28;;;;;;;4.97;2.30;;;;;;;17.30;53.90;96541.41;10377989;28;20033;-22